createdAt,value
2023-06-29T00:00:28.865Z,69.81
2023-06-29T00:01:28.905Z,70.02
2023-06-29T00:02:28.870Z,70.12
2023-06-29T00:03:28.837Z,70.22
2023-06-29T00:04:28.826Z,70.22
2023-06-29T00:05:28.787Z,70.22
2023-06-29T00:06:28.814Z,70.42
2023-06-29T00:07:28.820Z,70.32
2023-06-29T00:08:28.794Z,70.52
2023-06-29T00:09:28.788Z,70.76
2023-06-29T00:10:28.700Z,70.56
2023-06-29T00:11:28.690Z,70.86
2023-06-29T00:12:28.757Z,70.86
2023-06-29T00:13:28.686Z,71.06
2023-06-29T00:14:28.698Z,71.16
2023-06-29T00:15:28.674Z,71.26
2023-06-29T00:16:28.753Z,71.26
2023-06-29T00:17:28.710Z,71.37
2023-06-29T00:18:28.616Z,71.40
2023-06-29T00:19:28.682Z,71.60
2023-06-29T00:20:28.614Z,71.70
2023-06-29T00:21:28.590Z,71.70
2023-06-29T00:22:28.632Z,71.70
2023-06-29T00:23:28.570Z,71.70
2023-06-29T00:24:28.591Z,71.80
2023-06-29T00:25:28.598Z,71.80
2023-06-29T00:26:28.542Z,71.80
2023-06-29T00:27:28.524Z,71.91
2023-06-29T00:28:28.556Z,71.80
2023-06-29T00:29:28.495Z,71.80
2023-06-29T00:30:28.500Z,72.11
2023-06-29T00:31:28.518Z,72.11
2023-06-29T00:32:28.512Z,72.24
2023-06-29T00:33:28.514Z,72.75
2023-06-29T00:34:28.439Z,72.96
2023-06-29T00:35:28.426Z,72.96
2023-06-29T00:36:28.419Z,72.96
2023-06-29T00:37:28.429Z,72.85
2023-06-29T00:38:28.448Z,72.85
2023-06-29T00:39:28.437Z,72.96
2023-06-29T00:40:28.389Z,73.16
2023-06-29T00:41:28.368Z,73.25
2023-06-29T00:42:28.370Z,73.25
2023-06-29T00:43:28.361Z,73.16
2023-06-29T00:44:28.401Z,73.05
2023-06-29T00:45:28.341Z,72.96
2023-06-29T00:46:28.342Z,73.09
2023-06-29T00:47:28.321Z,73.29
2023-06-29T00:48:28.272Z,73.39
2023-06-29T00:49:28.294Z,73.36
2023-06-29T00:50:28.311Z,73.05
2023-06-29T00:51:28.275Z,73.05
2023-06-29T00:52:28.259Z,73.16
2023-06-29T00:53:28.233Z,72.85
2023-06-29T00:54:28.248Z,72.75
2023-06-29T00:55:28.215Z,72.75
2023-06-29T00:56:28.249Z,72.85
2023-06-29T00:57:28.198Z,72.65
2023-06-29T00:58:28.187Z,73.05
2023-06-29T00:59:28.200Z,72.75
2023-06-29T01:00:28.173Z,72.65
2023-06-29T01:01:28.201Z,72.96
2023-06-29T01:02:28.252Z,72.96
2023-06-29T01:03:28.203Z,72.75
2023-06-29T01:04:28.133Z,72.96
2023-06-29T01:05:28.119Z,73.19
2023-06-29T01:06:28.085Z,73.39
2023-06-29T01:07:28.134Z,73.39
2023-06-29T01:08:28.082Z,73.60
2023-06-29T01:09:28.044Z,73.60
2023-06-29T01:10:28.089Z,73.80
2023-06-29T01:11:28.041Z,73.80
2023-06-29T01:12:28.024Z,73.90
2023-06-29T01:13:28.051Z,74.00
2023-06-29T01:14:28.016Z,73.93
2023-06-29T01:15:28.011Z,73.83
2023-06-29T01:16:27.992Z,74.04
2023-06-29T01:17:28.042Z,74.24
2023-06-29T01:18:27.964Z,74.34
2023-06-29T01:19:27.960Z,74.65
2023-06-29T01:20:27.920Z,74.54
2023-06-29T01:21:27.930Z,74.74
2023-06-29T01:22:27.976Z,74.88
2023-06-29T01:23:27.899Z,74.98
2023-06-29T01:24:27.891Z,74.88
2023-06-29T01:25:27.910Z,75.19
2023-06-29T01:26:27.871Z,75.39
2023-06-29T01:27:27.871Z,75.49
2023-06-29T01:28:27.846Z,75.39
2023-06-29T01:29:27.879Z,75.59
2023-06-29T01:30:27.833Z,75.49
2023-06-29T01:31:27.845Z,75.49
2023-06-29T01:32:27.844Z,75.49
2023-06-29T01:33:27.782Z,75.39
2023-06-29T01:34:27.771Z,75.29
2023-06-29T01:35:27.824Z,75.39
2023-06-29T01:36:27.787Z,75.39
2023-06-29T01:37:27.759Z,75.52
2023-06-29T01:38:27.717Z,75.63
2023-06-29T01:39:27.723Z,75.73
2023-06-29T01:40:27.754Z,75.73
2023-06-29T01:41:27.704Z,75.93
2023-06-29T01:42:27.666Z,75.83
2023-06-29T01:43:27.662Z,75.93
2023-06-29T01:44:27.655Z,75.73
2023-06-29T01:45:27.676Z,75.83
2023-06-29T01:46:27.761Z,75.83
2023-06-29T01:47:27.682Z,75.63
2023-06-29T01:48:27.639Z,75.32
2023-06-29T01:49:27.596Z,75.73
2023-06-29T01:50:27.588Z,75.93
2023-06-29T01:51:27.653Z,76.03
2023-06-29T01:52:27.551Z,75.73
2023-06-29T01:53:27.910Z,75.73
2023-06-29T01:54:27.581Z,75.73
2023-06-29T01:55:27.532Z,75.83
2023-06-29T01:56:27.525Z,75.93
2023-06-29T01:57:27.559Z,76.14
2023-06-29T01:58:27.490Z,76.34
2023-06-29T01:59:27.469Z,76.14
2023-06-29T02:00:27.459Z,76.14
2023-06-29T02:01:27.525Z,76.44
2023-06-29T02:02:27.563Z,76.54
2023-06-29T02:03:27.504Z,76.44
2023-06-29T02:04:27.440Z,76.34
2023-06-29T02:05:27.429Z,76.24
2023-06-29T02:06:27.418Z,75.93
2023-06-29T02:07:27.603Z,75.43
2023-06-29T02:08:27.378Z,75.43
2023-06-29T02:09:27.392Z,75.67
2023-06-29T02:10:27.342Z,76.07
2023-06-29T02:11:27.362Z,76.37
2023-06-29T02:12:27.357Z,76.48
2023-06-29T02:13:27.359Z,76.68
2023-06-29T02:14:27.343Z,76.78
2023-06-29T02:15:27.306Z,76.78
2023-06-29T02:16:27.370Z,76.58
2023-06-29T02:17:27.331Z,76.58
2023-06-29T02:18:27.278Z,76.48
2023-06-29T02:19:27.300Z,76.07
2023-06-29T02:20:27.234Z,75.87
2023-06-29T02:21:27.243Z,76.17
2023-06-29T02:22:27.242Z,75.67
2023-06-29T02:23:27.212Z,75.67
2023-06-29T02:24:27.232Z,75.70
2023-06-29T02:25:27.178Z,75.90
2023-06-29T02:26:27.207Z,76.41
2023-06-29T02:27:27.203Z,76.72
2023-06-29T02:28:27.184Z,77.43
2023-06-29T02:29:27.153Z,77.33
2023-06-29T02:30:27.165Z,77.53
2023-06-29T02:31:27.179Z,77.53
2023-06-29T02:32:27.116Z,77.43
2023-06-29T02:33:27.126Z,77.12
2023-06-29T02:34:27.062Z,77.02
2023-06-29T02:35:27.088Z,77.02
2023-06-29T02:36:27.058Z,77.12
2023-06-29T02:37:27.052Z,76.92
2023-06-29T02:38:27.074Z,76.72
2023-06-29T02:39:27.051Z,76.72
2023-06-29T02:40:27.006Z,77.02
2023-06-29T02:41:27.008Z,76.82
2023-06-29T02:42:26.987Z,76.82
2023-06-29T02:43:26.974Z,76.61
2023-06-29T02:44:27.002Z,76.61
2023-06-29T02:45:26.953Z,76.51
2023-06-29T02:46:27.009Z,76.75
2023-06-29T02:47:26.964Z,77.36
2023-06-29T02:48:26.930Z,77.36
2023-06-29T02:49:26.930Z,77.12
2023-06-29T02:50:26.919Z,77.26
2023-06-29T02:51:26.903Z,77.36
2023-06-29T02:52:26.882Z,77.47
2023-06-29T02:53:26.871Z,77.77
2023-06-29T02:54:26.902Z,77.77
2023-06-29T02:55:26.866Z,77.67
2023-06-29T02:56:26.855Z,77.67
2023-06-29T02:57:26.821Z,77.77
2023-06-29T02:58:26.829Z,78.08
2023-06-29T02:59:26.798Z,78.17
2023-06-29T03:00:26.805Z,78.17
2023-06-29T03:01:26.850Z,78.17
2023-06-29T03:02:26.862Z,78.38
2023-06-29T03:03:26.827Z,78.38
2023-06-29T03:04:26.723Z,77.97
2023-06-29T03:05:26.800Z,77.77
2023-06-29T03:06:26.718Z,77.97
2023-06-29T03:07:26.736Z,77.77
2023-06-29T03:08:26.693Z,77.56
2023-06-29T03:09:26.725Z,77.26
2023-06-29T03:10:26.707Z,77.26
2023-06-29T03:11:26.705Z,77.36
2023-06-29T03:12:26.661Z,77.26
2023-06-29T03:13:26.628Z,77.06
2023-06-29T03:14:26.626Z,77.06
2023-06-29T03:15:26.640Z,77.06
2023-06-29T03:16:26.689Z,77.16
2023-06-29T03:17:26.589Z,77.16
2023-06-29T03:18:26.601Z,77.36
2023-06-29T03:19:26.560Z,77.60
2023-06-29T03:20:26.582Z,77.60
2023-06-29T03:21:26.525Z,77.81
2023-06-29T03:22:26.556Z,78.01
2023-06-29T03:23:26.528Z,78.11
2023-06-29T03:24:26.504Z,77.60
2023-06-29T03:25:26.518Z,77.60
2023-06-29T03:26:26.495Z,77.60
2023-06-29T03:27:26.474Z,77.60
2023-06-29T03:28:26.506Z,77.50
2023-06-29T03:29:26.462Z,77.40
2023-06-29T03:30:26.494Z,77.36
2023-06-29T03:31:26.445Z,77.16
2023-06-29T03:32:26.427Z,77.06
2023-06-29T03:33:26.442Z,76.86
2023-06-29T03:34:26.437Z,76.65
2023-06-29T03:35:26.391Z,76.59
2023-06-29T03:36:26.399Z,76.38
2023-06-29T03:37:26.374Z,76.38
2023-06-29T03:38:26.361Z,76.28
2023-06-29T03:39:26.353Z,76.38
2023-06-29T03:40:26.376Z,76.38
2023-06-29T03:41:26.311Z,76.38
2023-06-29T03:42:26.325Z,76.48
2023-06-29T03:43:26.306Z,76.59
2023-06-29T03:44:26.298Z,76.59
2023-06-29T03:45:26.541Z,76.89
2023-06-29T03:46:26.261Z,77.09
2023-06-29T03:47:26.321Z,76.99
2023-06-29T03:48:26.318Z,76.89
2023-06-29T03:49:26.229Z,77.09
2023-06-29T03:50:26.207Z,77.50
2023-06-29T03:51:26.249Z,77.50
2023-06-29T03:52:26.174Z,77.60
2023-06-29T03:53:26.195Z,77.40
2023-06-29T03:54:26.216Z,77.40
2023-06-29T03:55:26.171Z,77.47
2023-06-29T03:56:26.233Z,77.26
2023-06-29T03:57:26.124Z,77.06
2023-06-29T03:58:29.467Z,76.75
2023-06-29T03:59:26.114Z,76.55
2023-06-29T04:00:26.093Z,76.55
2023-06-29T04:01:26.118Z,76.45
2023-06-29T04:02:26.365Z,76.65
2023-06-29T04:03:26.179Z,76.86
2023-06-29T04:04:26.051Z,76.86
2023-06-29T04:05:26.045Z,77.06
2023-06-29T04:06:26.058Z,77.36
2023-06-29T04:07:26.110Z,77.56
2023-06-29T04:08:26.005Z,77.36
2023-06-29T04:09:25.990Z,77.06
2023-06-29T04:10:26.021Z,76.92
2023-06-29T04:11:25.962Z,77.02
2023-06-29T04:12:25.971Z,76.61
2023-06-29T04:13:25.997Z,76.72
2023-06-29T04:14:25.950Z,76.82
2023-06-29T04:15:25.996Z,76.82
2023-06-29T04:16:25.959Z,76.72
2023-06-29T04:17:25.936Z,76.61
2023-06-29T04:18:25.888Z,76.51
2023-06-29T04:19:25.910Z,76.37
2023-06-29T04:20:25.894Z,76.07
2023-06-29T04:21:25.885Z,76.07
2023-06-29T04:22:25.847Z,76.28
2023-06-29T04:23:25.851Z,76.28
2023-06-29T04:24:25.852Z,76.07
2023-06-29T04:25:25.824Z,75.87
2023-06-29T04:26:25.815Z,75.76
2023-06-29T04:27:25.820Z,75.67
2023-06-29T04:28:25.772Z,75.76
2023-06-29T04:29:25.786Z,75.76
2023-06-29T04:30:25.808Z,75.73
2023-06-29T04:31:25.728Z,75.32
2023-06-29T04:32:25.795Z,75.22
2023-06-29T04:33:25.728Z,74.92
2023-06-29T04:34:25.703Z,74.71
2023-06-29T04:35:25.719Z,74.62
2023-06-29T04:36:25.730Z,74.71
2023-06-29T04:37:25.733Z,74.62
2023-06-29T04:38:25.654Z,74.68
2023-06-29T04:39:25.639Z,74.58
2023-06-29T04:40:25.661Z,74.58
2023-06-29T04:41:25.684Z,74.38
2023-06-29T04:42:25.625Z,74.07
2023-06-29T04:43:25.607Z,74.17
2023-06-29T04:44:25.588Z,74.38
2023-06-29T04:45:25.599Z,74.48
2023-06-29T04:46:25.699Z,74.07
2023-06-29T04:47:25.678Z,73.87
2023-06-29T04:48:25.588Z,73.77
2023-06-29T04:49:25.566Z,73.63
2023-06-29T04:50:25.570Z,73.63
2023-06-29T04:51:25.594Z,73.33
2023-06-29T04:52:25.509Z,73.22
2023-06-29T04:53:25.517Z,73.43
2023-06-29T04:54:25.495Z,73.63
2023-06-29T04:55:25.496Z,73.33
2023-06-29T04:56:25.477Z,72.99
2023-06-29T04:57:27.997Z,72.89
2023-06-29T04:58:25.436Z,72.58
2023-06-29T04:59:25.460Z,72.38
2023-06-29T05:00:25.438Z,72.17
2023-06-29T05:01:25.427Z,72.08
2023-06-29T05:02:25.461Z,71.88
2023-06-29T05:03:25.663Z,72.17
2023-06-29T05:04:25.375Z,72.17
2023-06-29T05:05:25.378Z,72.08
2023-06-29T05:06:25.377Z,72.08
2023-06-29T05:07:25.421Z,72.04
2023-06-29T05:08:25.309Z,71.64
2023-06-29T05:09:25.298Z,71.23
2023-06-29T05:10:25.289Z,71.03
2023-06-29T05:11:25.295Z,71.13
2023-06-29T05:12:25.325Z,71.00
2023-06-29T05:13:25.314Z,70.79
2023-06-29T05:14:25.282Z,71.03
2023-06-29T05:15:25.233Z,71.20
2023-06-29T05:16:25.241Z,70.89
2023-06-29T05:17:25.248Z,70.59
2023-06-29T05:18:25.291Z,70.39
2023-06-29T05:19:25.208Z,70.18
2023-06-29T05:20:25.224Z,70.29
2023-06-29T05:21:25.207Z,70.49
2023-06-29T05:22:25.170Z,70.05
2023-06-29T05:23:25.168Z,69.85
2023-06-29T05:24:25.135Z,69.85
2023-06-29T05:25:25.156Z,69.74
2023-06-29T05:26:25.226Z,69.54
2023-06-29T05:27:25.106Z,69.51
2023-06-29T05:28:25.142Z,69.31
2023-06-29T05:29:25.112Z,69.31
2023-06-29T05:30:25.132Z,68.87
2023-06-29T05:31:25.079Z,68.57
2023-06-29T05:32:25.163Z,68.26
2023-06-29T05:33:25.064Z,68.03
2023-06-29T05:34:25.027Z,67.72
2023-06-29T05:35:25.004Z,67.52
2023-06-29T05:36:25.041Z,67.29
2023-06-29T05:37:24.990Z,66.99
2023-06-29T05:38:25.020Z,66.35
2023-06-29T05:39:24.991Z,65.61
2023-06-29T05:40:24.953Z,64.67
2023-06-29T05:41:24.977Z,64.01
2023-06-29T05:42:24.972Z,62.77
2023-06-29T05:43:24.991Z,61.07
2023-06-29T05:44:25.222Z,58.94
2023-06-29T05:45:24.934Z,56.00
2023-06-29T05:46:24.908Z,52.47
2023-06-29T05:47:24.893Z,50.47
2023-06-29T05:48:24.864Z,48.31
2023-06-29T05:49:24.865Z,46.45
2023-06-29T05:50:24.866Z,45.14
2023-06-29T05:51:24.861Z,44.59
2023-06-29T05:52:24.850Z,43.14
2023-06-29T05:53:24.833Z,42.63
2023-06-29T05:54:24.811Z,42.09
2023-06-29T05:55:24.825Z,40.96
2023-06-29T05:56:24.797Z,39.83
2023-06-29T05:57:24.779Z,39.03
2023-06-29T05:58:24.782Z,38.90
2023-06-29T05:59:24.777Z,38.39
2023-06-29T06:00:24.778Z,37.59
2023-06-29T06:01:24.762Z,37.30
2023-06-29T06:02:24.751Z,38.20
2023-06-29T06:03:25.788Z,37.39
2023-06-29T06:04:24.712Z,36.76
2023-06-29T06:05:24.673Z,36.45
2023-06-29T06:06:24.705Z,35.35
2023-06-29T06:07:24.744Z,35.05
2023-06-29T06:08:24.671Z,35.05
2023-06-29T06:09:24.660Z,35.27
2023-06-29T06:10:24.633Z,34.95
2023-06-29T06:11:24.638Z,34.84
2023-06-29T06:12:24.610Z,34.64
2023-06-29T06:13:24.616Z,34.53
2023-06-29T06:14:24.601Z,34.22
2023-06-29T06:15:24.592Z,33.91
2023-06-29T06:16:24.585Z,33.87
2023-06-29T06:17:24.597Z,32.87
2023-06-29T06:18:24.550Z,32.76
2023-06-29T06:19:24.554Z,32.66
2023-06-29T06:20:24.564Z,32.17
2023-06-29T06:21:24.509Z,32.46
2023-06-29T06:22:24.496Z,32.48
2023-06-29T06:23:24.487Z,32.28
2023-06-29T06:24:24.476Z,32.57
2023-06-29T06:25:24.478Z,32.97
2023-06-29T06:26:24.490Z,32.48
2023-06-29T06:27:25.570Z,32.07
2023-06-29T06:28:24.438Z,32.28
2023-06-29T06:29:24.427Z,32.68
2023-06-29T06:30:24.440Z,32.06
2023-06-29T06:31:33.366Z,31.57
2023-06-29T06:32:25.492Z,31.27
2023-06-29T06:33:24.600Z,31.24
2023-06-29T06:34:24.383Z,31.03
2023-06-29T06:35:24.381Z,30.64
2023-06-29T06:36:24.466Z,30.94
2023-06-29T06:37:24.342Z,31.01
2023-06-29T06:38:27.372Z,30.61
2023-06-29T06:39:25.316Z,29.91
2023-06-29T06:40:24.319Z,30.83
2023-06-29T06:41:24.329Z,30.83
2023-06-29T06:42:24.299Z,30.62
2023-06-29T06:43:24.276Z,29.91
2023-06-29T06:44:24.293Z,29.69
2023-06-29T06:45:24.262Z,29.60
2023-06-29T06:46:24.282Z,29.18
2023-06-29T06:47:24.247Z,28.78
2023-06-29T06:48:24.202Z,29.30
2023-06-29T06:49:24.230Z,29.59
2023-06-29T06:50:24.212Z,28.97
2023-06-29T06:51:24.227Z,28.07
2023-06-29T06:52:24.247Z,28.23
2023-06-29T06:53:24.168Z,27.12
2023-06-29T06:54:24.167Z,27.01
2023-06-29T06:55:24.207Z,26.42
2023-06-29T06:56:24.164Z,26.46
2023-06-29T06:57:24.167Z,27.97
2023-06-29T06:58:24.119Z,28.89
2023-06-29T06:59:24.085Z,30.15
2023-06-29T07:00:24.098Z,31.99
2023-06-29T07:01:26.078Z,33.33
2023-06-29T07:02:24.223Z,34.44
2023-06-29T07:03:24.080Z,35.28
2023-06-29T07:04:24.073Z,35.89
2023-06-29T07:05:24.402Z,36.32
2023-06-29T07:06:24.029Z,37.03
2023-06-29T07:07:24.128Z,37.34
2023-06-29T07:08:24.033Z,37.24
2023-06-29T07:09:24.005Z,37.45
2023-06-29T07:10:24.033Z,37.45
2023-06-29T07:11:24.006Z,37.45
2023-06-29T07:12:23.996Z,37.36
2023-06-29T07:13:23.953Z,37.66
2023-06-29T07:14:23.945Z,37.66
2023-06-29T07:15:23.935Z,38.17
2023-06-29T07:16:24.002Z,38.27
2023-06-29T07:17:23.988Z,38.17
2023-06-29T07:18:23.910Z,38.09
2023-06-29T07:21:26.027Z,39.20
2023-06-29T07:24:23.884Z,39.61
2023-06-29T07:25:23.838Z,39.91
2023-06-29T07:26:23.806Z,39.81
2023-06-29T07:27:23.847Z,39.91
2023-06-29T07:28:23.853Z,40.01
2023-06-29T07:29:23.790Z,39.51
2023-06-29T07:30:23.861Z,39.71
2023-06-29T07:31:23.841Z,40.11
2023-06-29T07:32:23.803Z,40.23
2023-06-29T07:33:23.770Z,40.12
2023-06-29T07:34:23.789Z,40.23
2023-06-29T07:35:23.711Z,40.33
2023-06-29T07:36:23.700Z,40.33
2023-06-29T07:37:23.751Z,40.33
2023-06-29T07:38:23.708Z,40.42
2023-06-29T07:39:23.690Z,40.23
2023-06-29T07:40:23.695Z,40.03
2023-06-29T07:41:23.896Z,40.33
2023-06-29T07:42:37.965Z,40.20
2023-06-29T07:43:24.674Z,40.60
2023-06-29T07:44:23.657Z,40.31
2023-06-29T07:45:23.617Z,40.42
2023-06-29T07:46:23.601Z,40.50
2023-06-29T07:47:23.699Z,40.41
2023-06-29T07:48:23.704Z,40.60
2023-06-29T07:49:23.638Z,40.60
2023-06-29T07:50:23.594Z,40.41
2023-06-29T07:51:23.637Z,40.48
2023-06-29T07:52:23.545Z,39.79
2023-06-29T07:53:23.537Z,40.01
2023-06-29T07:54:23.580Z,40.20
2023-06-29T07:55:23.528Z,40.50
2023-06-29T07:56:23.574Z,40.39
2023-06-29T07:59:23.501Z,40.58
2023-06-29T08:00:23.561Z,40.09
2023-06-29T08:01:23.507Z,39.99
2023-06-29T08:02:23.445Z,40.29
2023-06-29T08:03:23.446Z,40.60
2023-06-29T08:07:23.509Z,40.39
2023-06-29T08:08:23.530Z,40.17
2023-06-29T08:09:23.408Z,39.77
2023-06-29T08:10:23.390Z,40.17
2023-06-29T08:11:23.326Z,40.05
2023-06-29T08:12:23.334Z,39.83
2023-06-29T08:13:23.361Z,39.22
2023-06-29T08:14:23.348Z,38.63
2023-06-29T08:15:23.322Z,38.12
2023-06-29T08:16:23.384Z,38.20
2023-06-29T08:17:23.322Z,38.00
2023-06-29T08:18:23.245Z,38.08
2023-06-29T08:19:23.359Z,38.06
2023-06-29T08:20:23.291Z,37.76
2023-06-29T08:21:23.226Z,37.57
2023-06-29T08:22:23.283Z,37.55
2023-06-29T08:23:23.192Z,36.96
2023-06-29T08:24:23.206Z,36.55
2023-06-29T08:25:23.234Z,36.05
2023-06-29T08:26:23.189Z,35.76
2023-06-29T08:27:23.185Z,35.46
2023-06-29T08:28:23.159Z,35.44
2023-06-29T08:29:23.145Z,35.53
2023-06-29T08:30:23.181Z,35.02
2023-06-29T08:31:23.163Z,34.43
2023-06-29T08:32:23.234Z,34.01
2023-06-29T08:33:23.231Z,34.22
2023-06-29T08:34:23.082Z,34.11
2023-06-29T08:35:23.136Z,34.11
2023-06-29T08:36:23.053Z,33.61
2023-06-29T08:37:23.048Z,33.18
2023-06-29T08:38:23.030Z,32.78
2023-06-29T08:39:23.027Z,32.09
2023-06-29T08:40:23.149Z,32.48
2023-06-29T08:41:23.061Z,31.76
2023-06-29T08:42:22.979Z,31.26
2023-06-29T08:43:22.993Z,30.64
2023-06-29T08:44:23.337Z,30.35
2023-06-29T08:45:22.975Z,30.15
2023-06-29T08:46:22.977Z,30.15
2023-06-29T08:47:22.990Z,30.05
2023-06-29T08:48:22.919Z,29.83
2023-06-29T08:49:22.908Z,29.31
2023-06-29T08:50:22.942Z,28.82
2023-06-29T08:51:22.904Z,28.61
2023-06-29T08:52:22.915Z,28.69
2023-06-29T08:53:23.057Z,28.89
2023-06-29T08:54:22.897Z,28.78
2023-06-29T08:55:22.852Z,28.49
2023-06-29T08:56:22.835Z,28.18
2023-06-29T08:57:22.875Z,26.91
2023-06-29T08:58:22.825Z,26.06
2023-06-29T08:59:22.906Z,26.38
2023-06-29T09:00:22.815Z,26.56
2023-06-29T09:01:22.836Z,26.84
2023-06-29T09:02:22.825Z,25.75
2023-06-29T09:03:23.132Z,25.43
2023-06-29T09:04:22.830Z,25.43
2023-06-29T09:05:22.771Z,24.63
2023-06-29T09:06:23.011Z,24.39
2023-06-29T09:07:24.867Z,23.72
2023-06-29T09:08:22.792Z,24.10
2023-06-29T09:09:23.799Z,23.89
2023-06-29T09:10:22.829Z,23.71
2023-06-29T09:11:22.713Z,24.10
2023-06-29T09:12:22.685Z,23.52
2023-06-29T09:13:22.670Z,23.42
2023-06-29T09:14:22.710Z,24.02
2023-06-29T09:15:22.710Z,24.32
2023-06-29T09:16:22.764Z,24.22
2023-06-29T09:17:22.861Z,23.62
2023-06-29T09:18:22.630Z,23.93
2023-06-29T09:19:22.657Z,24.02
2023-06-29T09:20:22.645Z,24.52
2023-06-29T09:21:22.619Z,24.82
2023-06-29T09:22:22.632Z,24.80
2023-06-29T09:23:22.597Z,24.41
2023-06-29T09:24:22.578Z,24.41
2023-06-29T09:25:32.870Z,24.43
2023-06-29T09:26:23.643Z,24.45
2023-06-29T09:27:22.593Z,24.87
2023-06-29T09:28:22.582Z,25.26
2023-06-29T09:29:22.530Z,25.65
2023-06-29T09:30:22.571Z,25.35
2023-06-29T09:31:22.606Z,25.37
2023-06-29T09:32:22.578Z,25.18
2023-06-29T09:33:22.539Z,25.05
2023-06-29T09:34:22.474Z,24.82
2023-06-29T09:35:22.508Z,24.41
2023-06-29T09:36:22.477Z,23.80
2023-06-29T09:37:22.502Z,23.54
2023-06-29T09:38:22.487Z,24.06
2023-06-29T09:39:22.439Z,24.56
2023-06-29T09:40:22.451Z,24.65
2023-06-29T09:41:22.410Z,24.74
2023-06-29T09:42:22.427Z,24.33
2023-06-29T09:43:22.445Z,24.24
2023-06-29T09:44:22.458Z,24.32
2023-06-29T09:45:22.446Z,23.79
2023-06-29T09:46:22.487Z,24.27
2023-06-29T09:49:22.479Z,22.06
2023-06-29T09:50:22.574Z,22.26
2023-06-29T09:51:22.706Z,21.95
2023-06-29T09:52:22.416Z,21.75
2023-06-29T09:53:22.501Z,21.94
2023-06-29T09:54:22.283Z,21.73
2023-06-29T09:55:22.268Z,21.55
2023-06-29T09:56:22.315Z,21.66
2023-06-29T09:57:22.254Z,21.37
2023-06-29T09:58:22.282Z,21.26
2023-06-29T09:59:22.312Z,21.24
2023-06-29T10:00:22.242Z,20.48
2023-06-29T10:01:22.286Z,20.68
2023-06-29T10:02:23.288Z,20.89
2023-06-29T10:03:22.276Z,20.89
2023-06-29T10:04:22.271Z,20.89
2023-06-29T10:05:22.221Z,21.00
2023-06-29T10:06:22.225Z,20.89
2023-06-29T10:07:23.355Z,20.56
2023-06-29T10:08:22.165Z,19.77
2023-06-29T10:09:22.150Z,19.87
2023-06-29T10:10:22.228Z,20.64
2023-06-29T10:11:22.223Z,20.25
2023-06-29T10:12:22.163Z,20.25
2023-06-29T10:13:22.158Z,19.76
2023-06-29T10:14:22.161Z,20.25
2023-06-29T10:15:22.163Z,20.16
2023-06-29T10:16:22.146Z,19.57
2023-06-29T10:17:22.203Z,19.68
2023-06-29T10:18:22.101Z,20.18
2023-06-29T10:19:22.121Z,20.79
2023-06-29T10:20:22.071Z,21.48
2023-06-29T10:21:22.114Z,21.48
2023-06-29T10:22:22.325Z,21.39
2023-06-29T10:23:22.800Z,21.45
2023-06-29T10:24:22.315Z,20.87
2023-06-29T10:25:22.040Z,20.59
2023-06-29T10:26:22.009Z,20.89
2023-06-29T10:27:22.021Z,20.59
2023-06-29T10:28:22.062Z,20.59
2023-06-29T10:29:23.245Z,21.10
2023-06-29T10:30:21.997Z,21.30
2023-06-29T10:31:21.993Z,21.48
2023-06-29T10:32:21.999Z,21.19
2023-06-29T10:33:21.967Z,21.30
2023-06-29T10:34:21.980Z,21.81
2023-06-29T10:35:23.513Z,21.81
2023-06-29T10:36:21.979Z,21.71
2023-06-29T10:37:21.991Z,21.71
2023-06-29T10:38:21.920Z,21.42
2023-06-29T10:39:21.928Z,21.61
2023-06-29T10:40:21.904Z,21.31
2023-06-29T10:41:21.947Z,21.31
2023-06-29T10:42:21.886Z,21.22
2023-06-29T10:43:21.907Z,21.30
2023-06-29T10:44:21.935Z,21.00
2023-06-29T10:45:21.871Z,20.69
2023-06-29T10:46:21.883Z,20.50
2023-06-29T10:47:21.936Z,20.87
2023-06-29T10:48:38.489Z,20.99
2023-06-29T10:49:22.890Z,20.20
2023-06-29T10:50:21.830Z,20.19
2023-06-29T10:51:21.830Z,19.89
2023-06-29T10:52:22.063Z,19.79
2023-06-29T10:53:21.786Z,19.51
2023-06-29T10:54:21.804Z,19.70
2023-06-29T10:55:21.809Z,19.60
2023-06-29T10:56:21.818Z,19.51
2023-06-29T10:57:21.775Z,20.01
2023-06-29T10:58:21.746Z,20.69
2023-06-29T10:59:21.821Z,20.89
2023-06-29T11:00:21.748Z,20.51
2023-06-29T11:01:21.768Z,21.28
2023-06-29T11:02:22.950Z,20.78
2023-06-29T11:03:21.749Z,20.28
2023-06-29T11:04:21.893Z,20.16
2023-06-29T11:05:21.722Z,20.05
2023-06-29T11:07:22.736Z,19.96
2023-06-29T11:08:21.654Z,20.31
2023-06-29T11:09:21.695Z,20.32
2023-06-29T11:10:21.709Z,20.81
2023-06-29T11:11:21.658Z,21.10
2023-06-29T11:12:21.654Z,20.52
2023-06-29T11:13:21.652Z,21.33
2023-06-29T11:14:21.635Z,22.83
2023-06-29T11:15:21.671Z,23.28
2023-06-29T11:16:21.697Z,24.27
2023-06-29T11:17:21.633Z,24.37
2023-06-29T11:18:21.602Z,24.26
2023-06-29T11:19:21.582Z,24.45
2023-06-29T11:20:21.634Z,24.55
2023-06-29T11:21:21.637Z,24.16
2023-06-29T11:22:21.582Z,24.45
2023-06-29T11:23:21.541Z,24.44
2023-06-29T11:24:21.584Z,23.95
2023-06-29T11:25:21.530Z,23.65
2023-06-29T11:26:21.573Z,23.65
2023-06-29T11:27:21.518Z,23.44
2023-06-29T11:28:21.517Z,22.93
2023-06-29T11:29:21.800Z,23.43
2023-06-29T11:30:21.485Z,23.54
2023-06-29T11:31:21.518Z,22.96
2023-06-29T11:32:21.517Z,22.96
2023-06-29T11:33:33.829Z,23.27
2023-06-29T11:34:22.455Z,23.99
2023-06-29T11:35:22.462Z,24.08
2023-06-29T11:36:21.518Z,24.37
2023-06-29T11:37:23.844Z,24.76
2023-06-29T11:38:21.502Z,24.46
2023-06-29T11:39:21.442Z,24.27
2023-06-29T11:40:21.413Z,24.17
2023-06-29T11:41:21.412Z,23.97
2023-06-29T11:42:21.395Z,24.07
2023-06-29T11:43:24.166Z,24.34
2023-06-29T11:44:21.409Z,23.35
2023-06-29T11:45:21.335Z,22.86
2023-06-29T11:46:21.448Z,23.33
2023-06-29T11:48:22.344Z,22.20
2023-06-29T11:49:22.943Z,22.48
2023-06-29T11:50:21.360Z,22.09
2023-06-29T11:51:21.297Z,21.72
2023-06-29T11:52:21.318Z,22.44
2023-06-29T11:53:24.351Z,22.55
2023-06-29T11:54:21.273Z,23.07
2023-06-29T11:55:23.801Z,23.36
2023-06-29T11:56:21.249Z,24.49
2023-06-29T11:57:21.245Z,25.18
2023-06-29T11:58:21.281Z,25.16
2023-06-29T11:59:21.267Z,25.18
2023-06-29T12:00:21.286Z,25.18
2023-06-29T12:01:22.677Z,25.27
2023-06-29T12:02:21.277Z,25.07
2023-06-29T12:03:21.307Z,24.98
2023-06-29T12:04:21.376Z,25.36
2023-06-29T12:05:21.193Z,24.98
2023-06-29T12:06:21.173Z,25.10
2023-06-29T12:07:21.253Z,25.51
2023-06-29T12:08:21.244Z,26.42
2023-06-29T12:09:21.146Z,26.50
2023-06-29T12:10:21.179Z,25.82
2023-06-29T12:11:22.950Z,26.01
2023-06-29T12:12:21.160Z,26.21
2023-06-29T12:13:21.169Z,26.00
2023-06-29T12:14:21.098Z,26.10
2023-06-29T12:15:21.158Z,26.48
2023-06-29T12:18:21.380Z,26.38
2023-06-29T12:19:21.249Z,26.28
2023-06-29T12:20:21.271Z,26.56
2023-06-29T12:21:21.364Z,26.76
2023-06-29T12:22:21.017Z,26.95
2023-06-29T12:23:21.006Z,26.77
2023-06-29T12:24:20.985Z,26.98
2023-06-29T12:25:21.000Z,26.78
2023-06-29T12:26:20.962Z,26.78
2023-06-29T12:27:21.006Z,26.88
2023-06-29T12:28:20.992Z,26.70
2023-06-29T12:29:20.932Z,26.31
2023-06-29T12:30:20.956Z,26.12
2023-06-29T12:31:20.946Z,26.42
2023-06-29T12:32:20.996Z,26.90
2023-06-29T12:33:20.929Z,25.94
2023-06-29T12:34:21.105Z,26.04
2023-06-29T12:35:20.866Z,25.74
2023-06-29T12:36:20.851Z,25.84
2023-06-29T12:37:20.888Z,26.04
2023-06-29T12:38:20.844Z,26.04
2023-06-29T12:39:20.945Z,26.03
2023-06-29T12:40:20.854Z,26.50
2023-06-29T12:41:20.804Z,26.60
2023-06-29T12:42:20.798Z,26.60
2023-06-29T12:43:20.809Z,26.70
2023-06-29T12:44:20.760Z,26.79
2023-06-29T12:45:20.805Z,26.70
2023-06-29T12:46:20.749Z,26.79
2023-06-29T12:47:20.806Z,26.81
2023-06-29T12:48:20.790Z,27.01
2023-06-29T12:49:20.766Z,27.42
2023-06-29T12:50:20.778Z,27.81
2023-06-29T12:51:20.725Z,27.63
2023-06-29T12:52:20.711Z,27.92
2023-06-29T12:53:20.709Z,28.33
2023-06-29T12:54:20.686Z,28.72
2023-06-29T12:55:20.694Z,28.82
2023-06-29T12:56:20.711Z,28.82
2023-06-29T12:57:20.630Z,28.72
2023-06-29T12:58:20.620Z,28.53
2023-06-29T12:59:20.615Z,28.83
2023-06-29T13:00:20.623Z,29.43
2023-06-29T13:01:20.653Z,29.41
2023-06-29T13:02:20.683Z,28.92
2023-06-29T13:03:20.670Z,29.21
2023-06-29T13:04:20.683Z,29.02
2023-06-29T13:05:20.586Z,29.13
2023-06-29T13:06:20.530Z,29.52
2023-06-29T13:07:20.646Z,29.43